sensor_id;sensor_type;location;lat;lon;timestamp;temperature;humidity
24682;DHT22;12802;53.390;-2.328;2023-03-13T00:00:16;11.00;99.90
24682;DHT22;12802;53.390;-2.328;2023-03-13T00:02:42;11.00;99.90
24682;DHT22;12802;53.390;-2.328;2023-03-13T00:05:10;11.00;99.90
24682;DHT22;12802;53.390;-2.328;2023-03-13T00:07:36;11.00;99.90
24682;DHT22;12802;53.390;-2.328;2023-03-13T00:10:03;11.10;99.90
24682;DHT22;12802;53.390;-2.328;2023-03-13T00:12:29;11.10;99.90
24682;DHT22;12802;53.390;-2.328;2023-03-13T00:14:55;11.10;99.90
24682;DHT22;12802;53.390;-2.328;2023-03-13T00:17:20;11.10;99.90
24682;DHT22;12802;53.390;-2.328;2023-03-13T00:19:46;11.10;99.90
24682;DHT22;12802;53.390;-2.328;2023-03-13T00:22:12;11.10;99.90
24682;DHT22;12802;53.390;-2.328;2023-03-13T00:24:38;11.20;99.90
24682;DHT22;12802;53.390;-2.328;2023-03-13T00:27:04;11.20;99.90
24682;DHT22;12802;53.390;-2.328;2023-03-13T00:29:34;11.20;99.90
24682;DHT22;12802;53.390;-2.328;2023-03-13T00:32:00;11.30;99.90
24682;DHT22;12802;53.390;-2.328;2023-03-13T00:34:26;11.30;99.90
24682;DHT22;12802;53.390;-2.328;2023-03-13T00:36:53;11.30;99.90
24682;DHT22;12802;53.390;-2.328;2023-03-13T00:39:19;11.30;99.90
24682;DHT22;12802;53.390;-2.328;2023-03-13T00:41:45;11.30;99.90
24682;DHT22;12802;53.390;-2.328;2023-03-13T00:44:11;11.40;99.90
24682;DHT22;12802;53.390;-2.328;2023-03-13T00:46:36;11.40;99.90
24682;DHT22;12802;53.390;-2.328;2023-03-13T00:49:02;11.40;99.90
24682;DHT22;12802;53.390;-2.328;2023-03-13T00:51:28;11.40;99.90
24682;DHT22;12802;53.390;-2.328;2023-03-13T00:53:55;11.50;99.90
24682;DHT22;12802;53.390;-2.328;2023-03-13T00:56:22;11.50;99.90
24682;DHT22;12802;53.390;-2.328;2023-03-13T00:58:49;11.50;99.90
24682;DHT22;12802;53.390;-2.328;2023-03-13T01:01:23;11.50;99.90
24682;DHT22;12802;53.390;-2.328;2023-03-13T01:03:52;11.50;99.90
24682;DHT22;12802;53.390;-2.328;2023-03-13T01:06:21;11.50;99.90
24682;DHT22;12802;53.390;-2.328;2023-03-13T01:08:48;11.50;99.90
24682;DHT22;12802;53.390;-2.328;2023-03-13T01:11:16;11.50;99.90
24682;DHT22;12802;53.390;-2.328;2023-03-13T01:13:44;11.60;99.90
24682;DHT22;12802;53.390;-2.328;2023-03-13T01:16:18;11.60;99.90
24682;DHT22;12802;53.390;-2.328;2023-03-13T01:18:51;11.50;99.90
24682;DHT22;12802;53.390;-2.328;2023-03-13T01:21:20;11.60;99.90
24682;DHT22;12802;53.390;-2.328;2023-03-13T01:23:47;11.50;99.90
24682;DHT22;12802;53.390;-2.328;2023-03-13T01:26:14;11.50;99.90
24682;DHT22;12802;53.390;-2.328;2023-03-13T01:28:40;11.50;99.90
24682;DHT22;12802;53.390;-2.328;2023-03-13T01:31:24;11.50;99.90
24682;DHT22;12802;53.390;-2.328;2023-03-13T01:33:53;11.50;99.90
24682;DHT22;12802;53.390;-2.328;2023-03-13T01:36:19;11.50;99.90
24682;DHT22;12802;53.390;-2.328;2023-03-13T01:38:50;11.60;99.90
24682;DHT22;12802;53.390;-2.328;2023-03-13T01:41:17;11.60;99.90
24682;DHT22;12802;53.390;-2.328;2023-03-13T01:43:43;11.60;99.90
24682;DHT22;12802;53.390;-2.328;2023-03-13T01:46:18;11.60;99.90
24682;DHT22;12802;53.390;-2.328;2023-03-13T01:49:04;11.60;99.90
24682;DHT22;12802;53.390;-2.328;2023-03-13T01:52:04;11.60;99.90
24682;DHT22;12802;53.390;-2.328;2023-03-13T01:54:43;11.60;99.90
24682;DHT22;12802;53.390;-2.328;2023-03-13T01:57:29;11.60;99.90
24682;DHT22;12802;53.390;-2.328;2023-03-13T02:00:19;11.60;99.90
24682;DHT22;12802;53.390;-2.328;2023-03-13T02:02:48;11.70;99.90
24682;DHT22;12802;53.390;-2.328;2023-03-13T02:05:15;11.70;99.90
24682;DHT22;12802;53.390;-2.328;2023-03-13T02:07:46;11.70;99.90
24682;DHT22;12802;53.390;-2.328;2023-03-13T02:10:14;11.70;99.90
24682;DHT22;12802;53.390;-2.328;2023-03-13T02:12:43;11.70;99.90
24682;DHT22;12802;53.390;-2.328;2023-03-13T02:15:13;11.80;99.90
24682;DHT22;12802;53.390;-2.328;2023-03-13T02:17:40;11.80;99.90
24682;DHT22;12802;53.390;-2.328;2023-03-13T02:20:07;11.80;99.90
24682;DHT22;12802;53.390;-2.328;2023-03-13T02:22:52;11.80;99.90
24682;DHT22;12802;53.390;-2.328;2023-03-13T02:28:06;11.80;99.90
24682;DHT22;12802;53.390;-2.328;2023-03-13T02:30:34;11.80;99.90
24682;DHT22;12802;53.390;-2.328;2023-03-13T02:33:02;11.80;99.90
24682;DHT22;12802;53.390;-2.328;2023-03-13T02:35:29;11.80;99.90
24682;DHT22;12802;53.390;-2.328;2023-03-13T02:38:00;11.80;99.90
24682;DHT22;12802;53.390;-2.328;2023-03-13T02:40:29;11.80;99.90
24682;DHT22;12802;53.390;-2.328;2023-03-13T02:42:58;11.90;99.90
24682;DHT22;12802;53.390;-2.328;2023-03-13T02:45:25;11.80;99.90
24682;DHT22;12802;53.390;-2.328;2023-03-13T02:47:51;11.90;99.90
24682;DHT22;12802;53.390;-2.328;2023-03-13T02:50:17;11.90;99.90
24682;DHT22;12802;53.390;-2.328;2023-03-13T02:52:46;11.90;99.90
24682;DHT22;12802;53.390;-2.328;2023-03-13T02:55:15;11.90;99.90
24682;DHT22;12802;53.390;-2.328;2023-03-13T02:57:44;11.90;99.90
24682;DHT22;12802;53.390;-2.328;2023-03-13T03:00:10;11.90;99.90
24682;DHT22;12802;53.390;-2.328;2023-03-13T03:02:42;12.00;99.90
24682;DHT22;12802;53.390;-2.328;2023-03-13T03:05:09;12.00;99.90
24682;DHT22;12802;53.390;-2.328;2023-03-13T03:07:34;12.00;99.90
24682;DHT22;12802;53.390;-2.328;2023-03-13T03:10:01;12.00;99.90
24682;DHT22;12802;53.390;-2.328;2023-03-13T03:12:26;12.00;99.90
24682;DHT22;12802;53.390;-2.328;2023-03-13T03:14:52;12.00;99.90
24682;DHT22;12802;53.390;-2.328;2023-03-13T03:17:19;12.00;99.90
24682;DHT22;12802;53.390;-2.328;2023-03-13T03:19:45;12.00;99.90
24682;DHT22;12802;53.390;-2.328;2023-03-13T03:22:10;12.00;99.90
24682;DHT22;12802;53.390;-2.328;2023-03-13T03:24:36;12.10;99.90
24682;DHT22;12802;53.390;-2.328;2023-03-13T03:27:03;12.10;99.90
24682;DHT22;12802;53.390;-2.328;2023-03-13T03:29:35;12.10;99.90
24682;DHT22;12802;53.390;-2.328;2023-03-13T03:32:01;12.10;99.90
24682;DHT22;12802;53.390;-2.328;2023-03-13T03:34:28;12.10;99.90
24682;DHT22;12802;53.390;-2.328;2023-03-13T03:36:54;12.10;99.90
24682;DHT22;12802;53.390;-2.328;2023-03-13T03:39:20;12.10;99.90
24682;DHT22;12802;53.390;-2.328;2023-03-13T03:41:46;12.10;99.90
24682;DHT22;12802;53.390;-2.328;2023-03-13T03:44:12;12.20;99.90
24682;DHT22;12802;53.390;-2.328;2023-03-13T03:46:48;12.20;99.90
24682;DHT22;12802;53.390;-2.328;2023-03-13T03:49:14;12.20;99.90
24682;DHT22;12802;53.390;-2.328;2023-03-13T03:51:40;12.20;99.90
24682;DHT22;12802;53.390;-2.328;2023-03-13T03:54:05;12.10;99.90
24682;DHT22;12802;53.390;-2.328;2023-03-13T03:56:32;12.10;99.90
24682;DHT22;12802;53.390;-2.328;2023-03-13T03:58:59;12.10;99.90
24682;DHT22;12802;53.390;-2.328;2023-03-13T04:01:45;12.10;99.90
24682;DHT22;12802;53.390;-2.328;2023-03-13T04:04:12;12.10;99.90
24682;DHT22;12802;53.390;-2.328;2023-03-13T04:06:40;12.10;99.90
24682;DHT22;12802;53.390;-2.328;2023-03-13T04:09:07;12.10;99.90
24682;DHT22;12802;53.390;-2.328;2023-03-13T04:11:35;12.10;99.90
24682;DHT22;12802;53.390;-2.328;2023-03-13T04:14:02;12.10;99.90
24682;DHT22;12802;53.390;-2.328;2023-03-13T04:16:28;12.10;99.90
24682;DHT22;12802;53.390;-2.328;2023-03-13T04:18:54;12.10;99.90
24682;DHT22;12802;53.390;-2.328;2023-03-13T04:21:21;12.10;99.90
24682;DHT22;12802;53.390;-2.328;2023-03-13T04:23:51;12.10;99.90
24682;DHT22;12802;53.390;-2.328;2023-03-13T04:26:17;12.00;99.90
24682;DHT22;12802;53.390;-2.328;2023-03-13T04:28:44;12.10;99.90
24682;DHT22;12802;53.390;-2.328;2023-03-13T04:31:14;12.10;99.90
24682;DHT22;12802;53.390;-2.328;2023-03-13T04:33:58;12.10;99.90
24682;DHT22;12802;53.390;-2.328;2023-03-13T04:36:52;12.10;99.90
24682;DHT22;12802;53.390;-2.328;2023-03-13T04:39:50;12.10;99.90
24682;DHT22;12802;53.390;-2.328;2023-03-13T04:42:40;12.20;99.90
24682;DHT22;12802;53.390;-2.328;2023-03-13T04:45:25;12.20;99.90
24682;DHT22;12802;53.390;-2.328;2023-03-13T04:48:19;12.20;99.90
24682;DHT22;12802;53.390;-2.328;2023-03-13T04:51:05;12.20;99.90
24682;DHT22;12802;53.390;-2.328;2023-03-13T04:53:57;12.30;99.90
24682;DHT22;12802;53.390;-2.328;2023-03-13T04:56:49;12.20;99.90
24682;DHT22;12802;53.390;-2.328;2023-03-13T04:59:29;12.10;99.90
24682;DHT22;12802;53.390;-2.328;2023-03-13T05:02:06;12.00;99.90
24682;DHT22;12802;53.390;-2.328;2023-03-13T05:04:54;12.00;99.90
24682;DHT22;12802;53.390;-2.328;2023-03-13T05:07:43;11.90;99.90
24682;DHT22;12802;53.390;-2.328;2023-03-13T05:10:28;11.90;99.90
24682;DHT22;12802;53.390;-2.328;2023-03-13T05:13:12;11.80;99.90
24682;DHT22;12802;53.390;-2.328;2023-03-13T05:15:58;11.80;99.90
24682;DHT22;12802;53.390;-2.328;2023-03-13T05:18:43;11.80;99.90
24682;DHT22;12802;53.390;-2.328;2023-03-13T05:21:31;11.70;99.90
24682;DHT22;12802;53.390;-2.328;2023-03-13T05:24:15;11.60;99.90
24682;DHT22;12802;53.390;-2.328;2023-03-13T05:27:07;11.50;99.90
24682;DHT22;12802;53.390;-2.328;2023-03-13T05:30:02;11.40;99.90
24682;DHT22;12802;53.390;-2.328;2023-03-13T05:32:54;11.40;99.90
24682;DHT22;12802;53.390;-2.328;2023-03-13T05:35:42;11.30;99.90
24682;DHT22;12802;53.390;-2.328;2023-03-13T05:38:28;11.30;99.90
24682;DHT22;12802;53.390;-2.328;2023-03-13T05:41:14;11.30;99.90
24682;DHT22;12802;53.390;-2.328;2023-03-13T05:43:55;11.20;99.90
24682;DHT22;12802;53.390;-2.328;2023-03-13T05:46:32;11.20;99.90
24682;DHT22;12802;53.390;-2.328;2023-03-13T05:49:15;11.10;99.90
24682;DHT22;12802;53.390;-2.328;2023-03-13T05:51:49;11.10;99.90
24682;DHT22;12802;53.390;-2.328;2023-03-13T05:54:21;11.00;99.90
24682;DHT22;12802;53.390;-2.328;2023-03-13T05:57:07;10.90;99.90
24682;DHT22;12802;53.390;-2.328;2023-03-13T05:59:51;10.90;99.90
24682;DHT22;12802;53.390;-2.328;2023-03-13T06:02:35;10.80;99.90
24682;DHT22;12802;53.390;-2.328;2023-03-13T06:05:02;10.80;99.90
24682;DHT22;12802;53.390;-2.328;2023-03-13T06:07:28;10.80;99.90
24682;DHT22;12802;53.390;-2.328;2023-03-13T06:09:54;10.70;99.90
24682;DHT22;12802;53.390;-2.328;2023-03-13T06:12:20;10.70;99.90
24682;DHT22;12802;53.390;-2.328;2023-03-13T06:14:46;10.70;99.90
24682;DHT22;12802;53.390;-2.328;2023-03-13T06:17:11;10.70;99.90
24682;DHT22;12802;53.390;-2.328;2023-03-13T06:19:37;10.70;99.90
24682;DHT22;12802;53.390;-2.328;2023-03-13T06:22:03;10.70;99.90
24682;DHT22;12802;53.390;-2.328;2023-03-13T06:24:29;10.70;99.90
24682;DHT22;12802;53.390;-2.328;2023-03-13T06:26:54;10.70;99.90
24682;DHT22;12802;53.390;-2.328;2023-03-13T06:29:21;10.70;99.90
24682;DHT22;12802;53.390;-2.328;2023-03-13T06:31:49;10.70;99.90
24682;DHT22;12802;53.390;-2.328;2023-03-13T06:34:14;10.70;99.90
24682;DHT22;12802;53.390;-2.328;2023-03-13T06:36:40;10.70;99.90
24682;DHT22;12802;53.390;-2.328;2023-03-13T06:39:09;10.70;99.90
24682;DHT22;12802;53.390;-2.328;2023-03-13T06:41:36;10.70;99.90
24682;DHT22;12802;53.390;-2.328;2023-03-13T06:44:02;10.60;99.90
24682;DHT22;12802;53.390;-2.328;2023-03-13T06:46:28;10.60;99.90
24682;DHT22;12802;53.390;-2.328;2023-03-13T06:48:54;10.60;99.90
24682;DHT22;12802;53.390;-2.328;2023-03-13T06:51:21;10.60;99.90
24682;DHT22;12802;53.390;-2.328;2023-03-13T06:53:47;10.60;99.90
24682;DHT22;12802;53.390;-2.328;2023-03-13T06:56:14;10.50;99.90
24682;DHT22;12802;53.390;-2.328;2023-03-13T06:58:40;10.50;99.90
24682;DHT22;12802;53.390;-2.328;2023-03-13T07:01:12;10.50;99.90
24682;DHT22;12802;53.390;-2.328;2023-03-13T07:03:38;10.40;99.90
24682;DHT22;12802;53.390;-2.328;2023-03-13T07:06:04;10.40;99.90
24682;DHT22;12802;53.390;-2.328;2023-03-13T07:08:31;10.30;99.90
24682;DHT22;12802;53.390;-2.328;2023-03-13T07:10:58;10.30;99.90
24682;DHT22;12802;53.390;-2.328;2023-03-13T07:13:25;10.20;99.90
24682;DHT22;12802;53.390;-2.328;2023-03-13T07:15:50;10.20;99.90
24682;DHT22;12802;53.390;-2.328;2023-03-13T07:18:16;10.20;99.90
24682;DHT22;12802;53.390;-2.328;2023-03-13T07:20:42;10.20;99.90
24682;DHT22;12802;53.390;-2.328;2023-03-13T07:23:08;10.20;99.90
24682;DHT22;12802;53.390;-2.328;2023-03-13T07:25:34;10.30;99.90
24682;DHT22;12802;53.390;-2.328;2023-03-13T07:28:00;10.30;99.90
24682;DHT22;12802;53.390;-2.328;2023-03-13T07:30:26;10.30;99.90
24682;DHT22;12802;53.390;-2.328;2023-03-13T07:32:52;10.30;99.90
24682;DHT22;12802;53.390;-2.328;2023-03-13T07:35:18;10.40;99.90
24682;DHT22;12802;53.390;-2.328;2023-03-13T07:37:44;10.40;99.90
24682;DHT22;12802;53.390;-2.328;2023-03-13T07:40:10;10.40;99.90
24682;DHT22;12802;53.390;-2.328;2023-03-13T07:42:39;10.50;99.90
24682;DHT22;12802;53.390;-2.328;2023-03-13T07:45:06;10.50;99.90
24682;DHT22;12802;53.390;-2.328;2023-03-13T07:47:33;10.60;99.90
24682;DHT22;12802;53.390;-2.328;2023-03-13T07:49:59;10.60;99.90
24682;DHT22;12802;53.390;-2.328;2023-03-13T07:52:25;10.70;99.90
24682;DHT22;12802;53.390;-2.328;2023-03-13T07:54:53;10.70;99.90
24682;DHT22;12802;53.390;-2.328;2023-03-13T07:57:19;10.70;99.90
24682;DHT22;12802;53.390;-2.328;2023-03-13T07:59:45;10.80;99.90
24682;DHT22;12802;53.390;-2.328;2023-03-13T08:02:11;10.80;99.90
24682;DHT22;12802;53.390;-2.328;2023-03-13T08:04:41;10.80;99.90
24682;DHT22;12802;53.390;-2.328;2023-03-13T08:07:08;10.90;99.90
24682;DHT22;12802;53.390;-2.328;2023-03-13T08:09:34;10.90;99.90
24682;DHT22;12802;53.390;-2.328;2023-03-13T08:12:00;10.90;99.90
24682;DHT22;12802;53.390;-2.328;2023-03-13T08:14:26;11.00;99.90
24682;DHT22;12802;53.390;-2.328;2023-03-13T08:16:52;11.00;99.90
24682;DHT22;12802;53.390;-2.328;2023-03-13T08:19:18;11.00;99.90
24682;DHT22;12802;53.390;-2.328;2023-03-13T08:21:43;11.00;99.90
24682;DHT22;12802;53.390;-2.328;2023-03-13T08:24:11;11.00;99.90
24682;DHT22;12802;53.390;-2.328;2023-03-13T08:26:39;11.00;99.90
24682;DHT22;12802;53.390;-2.328;2023-03-13T08:29:10;11.10;99.90
24682;DHT22;12802;53.390;-2.328;2023-03-13T08:31:44;11.10;99.90
24682;DHT22;12802;53.390;-2.328;2023-03-13T08:34:12;11.20;99.90
24682;DHT22;12802;53.390;-2.328;2023-03-13T08:36:39;11.20;99.90
24682;DHT22;12802;53.390;-2.328;2023-03-13T08:39:16;11.20;99.90
24682;DHT22;12802;53.390;-2.328;2023-03-13T08:41:42;11.10;99.90
24682;DHT22;12802;53.390;-2.328;2023-03-13T08:44:13;11.00;99.90
24682;DHT22;12802;53.390;-2.328;2023-03-13T08:46:40;11.00;99.90
24682;DHT22;12802;53.390;-2.328;2023-03-13T08:49:06;11.00;99.90
24682;DHT22;12802;53.390;-2.328;2023-03-13T08:51:33;11.00;99.90
24682;DHT22;12802;53.390;-2.328;2023-03-13T08:54:00;10.90;99.90
24682;DHT22;12802;53.390;-2.328;2023-03-13T08:56:28;10.90;99.90
24682;DHT22;12802;53.390;-2.328;2023-03-13T08:58:57;10.90;99.90
24682;DHT22;12802;53.390;-2.328;2023-03-13T09:01:25;10.90;99.90
24682;DHT22;12802;53.390;-2.328;2023-03-13T09:03:51;10.90;99.90
24682;DHT22;12802;53.390;-2.328;2023-03-13T09:06:17;10.90;99.90
24682;DHT22;12802;53.390;-2.328;2023-03-13T09:08:43;11.00;99.90
24682;DHT22;12802;53.390;-2.328;2023-03-13T09:11:12;11.00;99.90
24682;DHT22;12802;53.390;-2.328;2023-03-13T09:13:44;11.00;99.90
24682;DHT22;12802;53.390;-2.328;2023-03-13T09:16:15;11.00;99.90
24682;DHT22;12802;53.390;-2.328;2023-03-13T09:18:41;11.10;99.90
24682;DHT22;12802;53.390;-2.328;2023-03-13T09:21:12;11.10;99.90
24682;DHT22;12802;53.390;-2.328;2023-03-13T09:23:39;11.10;99.90
24682;DHT22;12802;53.390;-2.328;2023-03-13T09:26:05;11.20;99.90
24682;DHT22;12802;53.390;-2.328;2023-03-13T09:28:33;11.20;99.90
24682;DHT22;12802;53.390;-2.328;2023-03-13T09:31:13;11.30;99.90
24682;DHT22;12802;53.390;-2.328;2023-03-13T09:33:40;11.30;99.90
24682;DHT22;12802;53.390;-2.328;2023-03-13T09:36:07;11.20;99.90
24682;DHT22;12802;53.390;-2.328;2023-03-13T09:38:33;11.20;99.90
24682;DHT22;12802;53.390;-2.328;2023-03-13T09:48:50;11.00;99.90
24682;DHT22;12802;53.390;-2.328;2023-03-13T09:56:21;10.90;99.90
24682;DHT22;12802;53.390;-2.328;2023-03-13T09:58:55;10.90;99.90
24682;DHT22;12802;53.390;-2.328;2023-03-13T10:01:29;10.80;99.90
24682;DHT22;12802;53.390;-2.328;2023-03-13T10:04:24;10.80;99.90
24682;DHT22;12802;53.390;-2.328;2023-03-13T10:06:52;10.80;99.90
24682;DHT22;12802;53.390;-2.328;2023-03-13T10:09:27;10.70;99.90
24682;DHT22;12802;53.390;-2.328;2023-03-13T10:11:55;10.70;99.90
24682;DHT22;12802;53.390;-2.328;2023-03-13T10:14:45;10.70;99.90
24682;DHT22;12802;53.390;-2.328;2023-03-13T10:17:38;10.60;99.90
24682;DHT22;12802;53.390;-2.328;2023-03-13T10:23:06;10.70;99.90
24682;DHT22;12802;53.390;-2.328;2023-03-13T10:25:37;10.70;99.90
24682;DHT22;12802;53.390;-2.328;2023-03-13T10:28:04;10.70;99.90
24682;DHT22;12802;53.390;-2.328;2023-03-13T10:30:33;10.80;99.90
24682;DHT22;12802;53.390;-2.328;2023-03-13T10:35:38;10.80;99.90
24682;DHT22;12802;53.390;-2.328;2023-03-13T10:38:18;10.80;99.90
24682;DHT22;12802;53.390;-2.328;2023-03-13T10:41:17;10.80;99.90
24682;DHT22;12802;53.390;-2.328;2023-03-13T10:43:52;10.80;99.90
24682;DHT22;12802;53.390;-2.328;2023-03-13T10:46:30;10.90;99.90
24682;DHT22;12802;53.390;-2.328;2023-03-13T10:48:58;10.90;99.90
24682;DHT22;12802;53.390;-2.328;2023-03-13T10:51:37;10.90;99.90
24682;DHT22;12802;53.390;-2.328;2023-03-13T10:54:14;10.90;99.90
24682;DHT22;12802;53.390;-2.328;2023-03-13T10:56:40;10.90;99.90
24682;DHT22;12802;53.390;-2.328;2023-03-13T10:59:22;11.00;99.90
24682;DHT22;12802;53.390;-2.328;2023-03-13T11:01:49;11.10;99.90
24682;DHT22;12802;53.390;-2.328;2023-03-13T11:04:41;11.20;99.90
24682;DHT22;12802;53.390;-2.328;2023-03-13T11:12:35;11.60;99.90
24682;DHT22;12802;53.390;-2.328;2023-03-13T11:15:04;11.70;99.90
24682;DHT22;12802;53.390;-2.328;2023-03-13T11:17:38;11.80;99.90
24682;DHT22;12802;53.390;-2.328;2023-03-13T11:28:19;12.00;99.90
24682;DHT22;12802;53.390;-2.328;2023-03-13T11:31:06;12.00;99.90
24682;DHT22;12802;53.390;-2.328;2023-03-13T11:45:27;12.10;99.90
24682;DHT22;12802;53.390;-2.328;2023-03-13T11:53:55;12.00;99.90
24682;DHT22;12802;53.390;-2.328;2023-03-13T11:59:37;12.00;99.90
24682;DHT22;12802;53.390;-2.328;2023-03-13T12:02:25;12.00;99.90
24682;DHT22;12802;53.390;-2.328;2023-03-13T12:05:13;12.00;99.90
24682;DHT22;12802;53.390;-2.328;2023-03-13T12:10:17;12.00;99.90
24682;DHT22;12802;53.390;-2.328;2023-03-13T12:13:07;12.00;99.90
24682;DHT22;12802;53.390;-2.328;2023-03-13T12:15:42;12.00;99.90
24682;DHT22;12802;53.390;-2.328;2023-03-13T12:18:31;12.00;99.90
24682;DHT22;12802;53.390;-2.328;2023-03-13T12:23:57;11.70;99.90
24682;DHT22;12802;53.390;-2.328;2023-03-13T12:27:01;11.60;99.90
24682;DHT22;12802;53.390;-2.328;2023-03-13T12:32:21;11.30;99.90
24682;DHT22;12802;53.390;-2.328;2023-03-13T12:37:40;11.10;99.90
24682;DHT22;12802;53.390;-2.328;2023-03-13T12:40:32;11.00;99.90
24682;DHT22;12802;53.390;-2.328;2023-03-13T12:54:53;10.70;99.90
24682;DHT22;12802;53.390;-2.328;2023-03-13T13:00:01;10.70;99.90
24682;DHT22;12802;53.390;-2.328;2023-03-13T13:02:31;10.70;99.90
24682;DHT22;12802;53.390;-2.328;2023-03-13T13:05:00;10.70;99.90
24682;DHT22;12802;53.390;-2.328;2023-03-13T13:10:01;10.70;99.90
24682;DHT22;12802;53.390;-2.328;2023-03-13T13:12:27;10.60;99.90
24682;DHT22;12802;53.390;-2.328;2023-03-13T13:15:21;10.60;99.90
24682;DHT22;12802;53.390;-2.328;2023-03-13T13:20:46;10.60;99.90
24682;DHT22;12802;53.390;-2.328;2023-03-13T13:28:56;10.70;99.90
24682;DHT22;12802;53.390;-2.328;2023-03-13T13:37:29;10.60;99.90
24682;DHT22;12802;53.390;-2.328;2023-03-13T13:39:52;10.60;99.90
24682;DHT22;12802;53.390;-2.328;2023-03-13T13:47:46;10.80;99.90
24682;DHT22;12802;53.390;-2.328;2023-03-13T13:50:23;10.80;99.90
24682;DHT22;12802;53.390;-2.328;2023-03-13T13:52:50;10.80;99.90
24682;DHT22;12802;53.390;-2.328;2023-03-13T13:58:12;10.80;99.90
24682;DHT22;12802;53.390;-2.328;2023-03-13T14:03:20;10.70;99.90
24682;DHT22;12802;53.390;-2.328;2023-03-13T14:05:51;10.70;99.90
24682;DHT22;12802;53.390;-2.328;2023-03-13T14:08:23;10.70;99.90
24682;DHT22;12802;53.390;-2.328;2023-03-13T14:11:04;10.60;99.90
24682;DHT22;12802;53.390;-2.328;2023-03-13T14:13:32;10.50;99.90
24682;DHT22;12802;53.390;-2.328;2023-03-13T14:16:24;10.50;99.90
24682;DHT22;12802;53.390;-2.328;2023-03-13T14:18:50;10.50;99.90
24682;DHT22;12802;53.390;-2.328;2023-03-13T14:21:21;10.50;99.90
24682;DHT22;12802;53.390;-2.328;2023-03-13T14:23:47;10.40;99.90
24682;DHT22;12802;53.390;-2.328;2023-03-13T14:26:25;10.40;99.90
24682;DHT22;12802;53.390;-2.328;2023-03-13T14:28:57;10.40;99.90
24682;DHT22;12802;53.390;-2.328;2023-03-13T14:31:35;10.40;99.90
24682;DHT22;12802;53.390;-2.328;2023-03-13T14:34:03;10.40;99.90
24682;DHT22;12802;53.390;-2.328;2023-03-13T14:36:29;10.40;99.90
24682;DHT22;12802;53.390;-2.328;2023-03-13T14:39:16;10.30;99.90
24682;DHT22;12802;53.390;-2.328;2023-03-13T14:41:48;10.30;99.90
24682;DHT22;12802;53.390;-2.328;2023-03-13T14:44:23;10.30;99.90
24682;DHT22;12802;53.390;-2.328;2023-03-13T14:46:57;10.30;99.90
24682;DHT22;12802;53.390;-2.328;2023-03-13T14:49:25;10.30;99.90
24682;DHT22;12802;53.390;-2.328;2023-03-13T14:54:55;10.30;99.90
24682;DHT22;12802;53.390;-2.328;2023-03-13T14:57:23;10.20;99.90
24682;DHT22;12802;53.390;-2.328;2023-03-13T14:59:52;10.20;99.90
24682;DHT22;12802;53.390;-2.328;2023-03-13T15:02:26;10.20;99.90
24682;DHT22;12802;53.390;-2.328;2023-03-13T15:04:57;10.20;99.90
24682;DHT22;12802;53.390;-2.328;2023-03-13T15:07:36;10.20;99.90
24682;DHT22;12802;53.390;-2.328;2023-03-13T15:12:43;10.20;99.90
24682;DHT22;12802;53.390;-2.328;2023-03-13T15:15:09;10.20;99.90
24682;DHT22;12802;53.390;-2.328;2023-03-13T15:17:35;10.20;99.90
24682;DHT22;12802;53.390;-2.328;2023-03-13T15:20:03;10.30;99.90
24682;DHT22;12802;53.390;-2.328;2023-03-13T15:22:36;10.30;99.90
24682;DHT22;12802;53.390;-2.328;2023-03-13T15:25:05;10.30;99.90
24682;DHT22;12802;53.390;-2.328;2023-03-13T15:27:31;10.30;99.90
24682;DHT22;12802;53.390;-2.328;2023-03-13T15:29:57;10.30;99.90
24682;DHT22;12802;53.390;-2.328;2023-03-13T15:32:42;10.30;99.90
24682;DHT22;12802;53.390;-2.328;2023-03-13T15:35:31;10.40;99.90
24682;DHT22;12802;53.390;-2.328;2023-03-13T15:37:59;10.40;99.90
24682;DHT22;12802;53.390;-2.328;2023-03-13T15:40:26;10.40;99.90
24682;DHT22;12802;53.390;-2.328;2023-03-13T15:42:53;10.40;99.90
24682;DHT22;12802;53.390;-2.328;2023-03-13T15:45:19;10.40;99.90
24682;DHT22;12802;53.390;-2.328;2023-03-13T15:47:45;10.40;99.90
24682;DHT22;12802;53.390;-2.328;2023-03-13T15:50:14;10.40;99.90
24682;DHT22;12802;53.390;-2.328;2023-03-13T15:52:40;10.40;99.90
24682;DHT22;12802;53.390;-2.328;2023-03-13T15:55:06;10.50;99.90
24682;DHT22;12802;53.390;-2.328;2023-03-13T15:57:35;10.50;99.90
24682;DHT22;12802;53.390;-2.328;2023-03-13T16:00:02;10.50;99.90
24682;DHT22;12802;53.390;-2.328;2023-03-13T16:02:31;10.50;99.90
24682;DHT22;12802;53.390;-2.328;2023-03-13T16:04:56;10.50;99.90
24682;DHT22;12802;53.390;-2.328;2023-03-13T16:07:22;10.50;99.90
24682;DHT22;12802;53.390;-2.328;2023-03-13T16:09:49;10.50;99.90
24682;DHT22;12802;53.390;-2.328;2023-03-13T16:12:15;10.50;99.90
24682;DHT22;12802;53.390;-2.328;2023-03-13T16:14:41;10.50;99.90
24682;DHT22;12802;53.390;-2.328;2023-03-13T16:17:15;10.50;99.90
24682;DHT22;12802;53.390;-2.328;2023-03-13T16:19:43;10.50;99.90
24682;DHT22;12802;53.390;-2.328;2023-03-13T16:22:09;10.50;99.90
24682;DHT22;12802;53.390;-2.328;2023-03-13T16:24:34;10.50;99.90
24682;DHT22;12802;53.390;-2.328;2023-03-13T16:27:00;10.50;99.90
24682;DHT22;12802;53.390;-2.328;2023-03-13T16:29:26;10.60;99.90
24682;DHT22;12802;53.390;-2.328;2023-03-13T16:31:52;10.60;99.90
24682;DHT22;12802;53.390;-2.328;2023-03-13T16:34:18;10.60;99.90
24682;DHT22;12802;53.390;-2.328;2023-03-13T16:36:43;10.60;99.90
24682;DHT22;12802;53.390;-2.328;2023-03-13T16:39:13;10.70;99.90
24682;DHT22;12802;53.390;-2.328;2023-03-13T16:41:39;10.70;99.90
24682;DHT22;12802;53.390;-2.328;2023-03-13T16:44:05;10.70;99.90
24682;DHT22;12802;53.390;-2.328;2023-03-13T16:46:39;10.70;99.90
24682;DHT22;12802;53.390;-2.328;2023-03-13T16:49:06;10.70;99.90
24682;DHT22;12802;53.390;-2.328;2023-03-13T16:51:32;10.70;99.90
24682;DHT22;12802;53.390;-2.328;2023-03-13T16:53:59;10.70;99.90
24682;DHT22;12802;53.390;-2.328;2023-03-13T16:56:27;10.70;99.90
24682;DHT22;12802;53.390;-2.328;2023-03-13T16:58:54;10.70;99.90
24682;DHT22;12802;53.390;-2.328;2023-03-13T17:01:20;10.70;99.90
24682;DHT22;12802;53.390;-2.328;2023-03-13T17:03:47;10.70;99.90
24682;DHT22;12802;53.390;-2.328;2023-03-13T17:06:34;10.70;99.90
24682;DHT22;12802;53.390;-2.328;2023-03-13T17:09:01;10.70;99.90
24682;DHT22;12802;53.390;-2.328;2023-03-13T17:11:27;10.80;99.90
24682;DHT22;12802;53.390;-2.328;2023-03-13T17:13:54;10.80;99.90
24682;DHT22;12802;53.390;-2.328;2023-03-13T17:16:27;10.80;99.90
24682;DHT22;12802;53.390;-2.328;2023-03-13T17:18:53;10.90;99.90
24682;DHT22;12802;53.390;-2.328;2023-03-13T17:21:22;10.90;99.90
24682;DHT22;12802;53.390;-2.328;2023-03-13T17:23:48;10.90;99.90
24682;DHT22;12802;53.390;-2.328;2023-03-13T17:26:29;10.90;99.90
24682;DHT22;12802;53.390;-2.328;2023-03-13T17:28:56;10.90;99.90
24682;DHT22;12802;53.390;-2.328;2023-03-13T17:31:24;10.70;99.90
24682;DHT22;12802;53.390;-2.328;2023-03-13T17:33:50;10.70;99.90